createdAt,value
2017-12-11T00:00:20.260Z,2.65
2017-12-11T00:01:25.962Z,1.75
2017-12-11T00:02:31.723Z,1.50
2017-12-11T00:03:38.201Z,1.35
2017-12-11T00:04:43.894Z,1.83
2017-12-11T00:05:49.598Z,1.50
2017-12-11T00:06:55.307Z,2.78
2017-12-11T00:08:01.037Z,1.95
2017-12-11T00:09:06.496Z,1.42
2017-12-11T00:10:11.863Z,1.33
2017-12-11T00:11:17.679Z,2.00
2017-12-11T00:12:23.075Z,2.28
2017-12-11T00:13:29.248Z,3.62
2017-12-11T00:14:34.668Z,2.53
2017-12-11T00:15:41.124Z,1.77
2017-12-11T00:16:46.220Z,1.50
2017-12-11T00:17:51.923Z,1.60
2017-12-11T00:18:57.640Z,1.37
2017-12-11T00:20:03.344Z,1.65
2017-12-11T00:21:08.724Z,1.35
2017-12-11T00:22:13.778Z,1.90
2017-12-11T00:23:19.562Z,1.73
2017-12-11T00:24:25.292Z,1.70
2017-12-11T00:25:31.801Z,1.85
2017-12-11T00:26:37.516Z,3.72
2017-12-11T00:27:42.602Z,1.73
2017-12-11T00:28:48.307Z,2.47
2017-12-11T00:29:54.074Z,1.95
2017-12-11T00:30:59.834Z,2.33
2017-12-11T00:32:05.537Z,1.48
2017-12-11T00:33:11.239Z,1.87
2017-12-11T00:34:17.706Z,1.92
2017-12-11T00:35:23.444Z,1.23
2017-12-11T00:36:29.910Z,1.10
2017-12-11T00:37:35.657Z,2.00
2017-12-11T00:38:41.558Z,1.30
2017-12-11T00:39:48.157Z,1.45
2017-12-11T00:40:53.976Z,1.58
2017-12-11T00:41:59.826Z,1.52
2017-12-11T00:43:05.987Z,1.30
2017-12-11T00:44:11.893Z,1.20
2017-12-11T00:45:17.271Z,1.20
2017-12-11T00:46:22.365Z,1.40
2017-12-11T00:47:28.171Z,1.33
2017-12-11T00:48:33.947Z,1.58
2017-12-11T00:49:39.691Z,1.65
2017-12-11T00:50:45.049Z,1.35
2017-12-11T00:51:50.440Z,1.08
2017-12-11T00:52:56.068Z,2.95
2017-12-11T00:54:01.863Z,1.80
2017-12-11T00:55:08.368Z,1.45
2017-12-11T00:56:14.105Z,1.33
2017-12-11T00:57:19.494Z,1.23
2017-12-11T00:58:26.010Z,1.75
2017-12-11T00:59:31.834Z,1.20
2017-12-11T01:00:37.534Z,1.10
2017-12-11T01:01:43.794Z,0.85
2017-12-11T01:02:49.634Z,1.42
2017-12-11T01:03:55.792Z,1.35
2017-12-11T01:05:01.624Z,1.00
2017-12-11T01:06:07.676Z,1.15
2017-12-11T01:07:13.827Z,1.33
2017-12-11T01:08:19.671Z,1.10
2017-12-11T01:09:25.485Z,1.70
2017-12-11T01:10:30.583Z,1.00
2017-12-11T01:11:36.385Z,1.60
2017-12-11T01:12:41.767Z,1.55
2017-12-11T01:13:47.484Z,1.10
2017-12-11T01:14:53.208Z,1.10
2017-12-11T01:15:58.897Z,0.93
2017-12-11T01:17:04.587Z,0.85
2017-12-11T01:18:10.286Z,1.85
2017-12-11T01:19:16.169Z,1.33
2017-12-11T01:20:22.619Z,0.90
2017-12-11T01:21:28.767Z,1.00
2017-12-11T01:22:35.326Z,1.20
2017-12-11T01:23:41.025Z,1.27
2017-12-11T01:24:47.128Z,1.33
2017-12-11T01:25:52.502Z,0.70
2017-12-11T01:26:58.195Z,0.80
2017-12-11T01:28:03.885Z,1.62
2017-12-11T01:29:09.605Z,2.17
2017-12-11T01:30:15.320Z,1.00
2017-12-11T01:31:20.170Z,0.90
2017-12-11T01:32:25.900Z,0.80
2017-12-11T01:33:31.629Z,1.10
2017-12-11T01:34:37.532Z,1.25
2017-12-11T01:35:43.266Z,1.00
2017-12-11T01:36:48.680Z,0.80
2017-12-11T01:37:54.441Z,0.77
2017-12-11T01:39:00.168Z,0.80
2017-12-11T01:40:05.484Z,0.70
2017-12-11T01:41:10.563Z,0.62
2017-12-11T01:42:16.382Z,0.70
2017-12-11T01:43:21.780Z,0.73
2017-12-11T01:44:27.156Z,0.70
2017-12-11T01:45:32.214Z,0.60
2017-12-11T01:46:37.308Z,0.68
2017-12-11T01:47:43.796Z,0.90
2017-12-11T01:48:49.606Z,0.85
2017-12-11T01:49:55.320Z,0.60
2017-12-11T01:51:00.351Z,0.60
2017-12-11T01:52:05.456Z,0.70
2017-12-11T01:53:11.146Z,0.60
2017-12-11T01:54:16.877Z,0.60
2017-12-11T01:55:22.762Z,0.90
2017-12-11T01:56:28.464Z,0.60
2017-12-11T01:57:34.206Z,0.70
2017-12-11T01:58:39.919Z,0.60
2017-12-11T01:59:45.825Z,0.70
2017-12-11T02:00:51.527Z,0.75
2017-12-11T02:01:57.250Z,0.60
2017-12-11T02:03:02.684Z,0.57
2017-12-11T02:04:08.392Z,0.60
2017-12-11T02:05:14.095Z,0.55
2017-12-11T02:06:19.799Z,0.88
2017-12-11T02:07:25.504Z,1.10
2017-12-11T02:08:31.216Z,0.50
2017-12-11T02:09:37.943Z,0.50
2017-12-11T02:10:43.521Z,0.55
2017-12-11T02:11:49.971Z,0.68
2017-12-11T02:12:56.432Z,0.50
2017-12-11T02:14:02.202Z,0.62
2017-12-11T02:15:08.904Z,0.70
2017-12-11T02:16:13.965Z,0.50
2017-12-11T02:17:20.457Z,0.57
2017-12-11T02:18:26.181Z,0.60
2017-12-11T02:19:32.009Z,0.82
2017-12-11T02:20:37.070Z,0.60
2017-12-11T02:21:42.178Z,0.50
2017-12-11T02:22:47.219Z,0.60
2017-12-11T02:23:52.421Z,0.70
2017-12-11T02:24:58.591Z,0.52
2017-12-11T02:26:03.631Z,0.73
2017-12-11T02:27:08.677Z,0.80
2017-12-11T02:28:13.721Z,0.50
2017-12-11T02:29:18.769Z,0.62
2017-12-11T02:30:24.474Z,1.15
2017-12-11T02:31:29.574Z,0.60
2017-12-11T02:32:34.673Z,0.70
2017-12-11T02:33:40.512Z,0.52
2017-12-11T02:34:46.326Z,1.05
2017-12-11T02:35:52.504Z,0.70
2017-12-11T02:36:58.124Z,0.60
2017-12-11T02:38:03.524Z,0.60
2017-12-11T02:39:09.243Z,0.70
2017-12-11T02:40:14.269Z,0.77
2017-12-11T02:41:19.352Z,0.95
2017-12-11T02:42:24.381Z,0.85
2017-12-11T02:43:30.509Z,0.40
2017-12-11T02:44:35.535Z,0.60
2017-12-11T02:45:40.601Z,0.50
2017-12-11T02:46:46.427Z,0.70
2017-12-11T02:47:52.236Z,0.82
2017-12-11T02:48:57.459Z,0.50
2017-12-11T02:50:03.157Z,0.90
2017-12-11T02:51:08.865Z,0.62
2017-12-11T02:52:14.600Z,0.60
2017-12-11T02:53:19.634Z,0.52
2017-12-11T02:54:25.347Z,0.60
2017-12-11T02:55:31.076Z,0.68
2017-12-11T02:56:36.772Z,0.65
2017-12-11T02:57:42.492Z,0.60
2017-12-11T02:58:48.974Z,1.10
2017-12-11T02:59:54.705Z,0.50
2017-12-11T03:01:00.865Z,0.60
2017-12-11T03:02:06.556Z,0.93
2017-12-11T03:03:11.961Z,0.60
2017-12-11T03:04:17.668Z,0.80
2017-12-11T03:05:24.147Z,0.60
2017-12-11T03:06:29.829Z,0.60
2017-12-11T03:07:35.529Z,0.60
2017-12-11T03:08:41.243Z,0.77
2017-12-11T03:09:47.726Z,0.50
2017-12-11T03:10:53.453Z,0.50
2017-12-11T03:11:59.900Z,0.70
2017-12-11T03:13:06.364Z,0.60
2017-12-11T03:14:12.089Z,0.60
2017-12-11T03:15:17.812Z,0.62
2017-12-11T03:16:23.526Z,0.60
2017-12-11T03:17:29.232Z,0.50
2017-12-11T03:18:34.937Z,0.60
2017-12-11T03:19:40.832Z,0.90
2017-12-11T03:20:46.542Z,0.60
2017-12-11T03:21:53.016Z,0.60
2017-12-11T03:22:59.476Z,0.60
2017-12-11T03:24:05.266Z,0.95
2017-12-11T03:25:10.988Z,0.60
2017-12-11T03:26:16.667Z,0.60
2017-12-11T03:27:22.390Z,0.62
2017-12-11T03:28:28.078Z,0.60
2017-12-11T03:29:33.817Z,0.60
2017-12-11T03:30:39.988Z,0.60
2017-12-11T03:31:45.359Z,0.70
2017-12-11T03:32:50.385Z,0.70
2017-12-11T03:33:55.764Z,0.75
2017-12-11T03:35:01.456Z,0.65
2017-12-11T03:36:07.207Z,0.95
2017-12-11T03:37:12.908Z,0.60
2017-12-11T03:38:18.597Z,0.50
2017-12-11T03:39:25.086Z,1.23
2017-12-11T03:40:30.808Z,0.55
2017-12-11T03:41:37.311Z,0.75
2017-12-11T03:42:43.046Z,0.55
2017-12-11T03:43:48.747Z,0.40
2017-12-11T03:44:55.229Z,0.60
2017-12-11T03:46:00.966Z,0.60
2017-12-11T03:47:06.711Z,0.65
2017-12-11T03:48:12.423Z,0.60
2017-12-11T03:49:18.976Z,0.77
2017-12-11T03:50:24.679Z,0.80
2017-12-11T03:51:30.385Z,0.62
2017-12-11T03:52:36.104Z,0.60
2017-12-11T03:53:41.800Z,0.60
2017-12-11T03:54:47.303Z,0.55
2017-12-11T03:55:53.239Z,0.90
2017-12-11T03:56:59.712Z,0.80
2017-12-11T03:58:05.467Z,0.65
2017-12-11T03:59:11.164Z,0.62
2017-12-11T04:00:16.885Z,0.65
2017-12-11T04:01:22.247Z,0.60
2017-12-11T04:02:28.729Z,0.75
2017-12-11T04:03:34.437Z,0.60
2017-12-11T04:04:41.117Z,0.98
2017-12-11T04:05:47.599Z,0.62
2017-12-11T04:06:53.289Z,1.17
2017-12-11T04:07:59.012Z,1.55
2017-12-11T04:09:03.992Z,2.03
2017-12-11T04:10:09.908Z,0.73
2017-12-11T04:11:15.596Z,0.50
2017-12-11T04:12:21.202Z,0.50
2017-12-11T04:13:27.672Z,0.60
2017-12-11T04:14:33.392Z,0.68
2017-12-11T04:15:39.860Z,0.70
2017-12-11T04:16:46.327Z,1.45
2017-12-11T04:17:52.016Z,0.80
2017-12-11T04:18:58.484Z,1.10
2017-12-11T04:20:04.033Z,0.60
2017-12-11T04:21:10.480Z,0.90
2017-12-11T04:22:16.173Z,0.70
2017-12-11T04:23:21.861Z,0.60
2017-12-11T04:24:27.564Z,0.65
2017-12-11T04:25:33.294Z,0.60
2017-12-11T04:26:38.990Z,0.50
2017-12-11T04:27:45.267Z,0.50
2017-12-11T04:28:51.726Z,0.60
2017-12-11T04:29:58.217Z,0.60
2017-12-11T04:31:03.933Z,0.55
2017-12-11T04:32:09.628Z,0.50
2017-12-11T04:33:16.838Z,0.60
2017-12-11T04:34:23.353Z,0.80
2017-12-11T04:35:29.284Z,0.60
2017-12-11T04:36:35.005Z,1.00
2017-12-11T04:37:40.504Z,0.95
2017-12-11T04:38:46.213Z,0.50
2017-12-11T04:39:51.923Z,0.82
2017-12-11T04:40:57.622Z,0.60
2017-12-11T04:42:04.384Z,0.62
2017-12-11T04:43:10.072Z,0.50
2017-12-11T04:44:15.764Z,1.42
2017-12-11T04:45:21.479Z,0.70
2017-12-11T04:46:27.192Z,0.62
2017-12-11T04:47:32.935Z,0.60
2017-12-11T04:48:38.700Z,0.62
2017-12-11T04:49:44.416Z,0.70
2017-12-11T04:50:50.115Z,0.60
2017-12-11T04:51:56.573Z,0.60
2017-12-11T04:53:03.068Z,0.60
2017-12-11T04:54:08.774Z,0.62
2017-12-11T04:55:15.231Z,0.80
2017-12-11T04:56:21.487Z,0.80
2017-12-11T04:57:27.944Z,0.90
2017-12-11T04:58:34.433Z,0.70
2017-12-11T04:59:40.137Z,0.60
2017-12-11T05:00:46.651Z,0.57
2017-12-11T05:01:52.391Z,0.70
2017-12-11T05:02:58.094Z,0.50
2017-12-11T05:04:04.576Z,0.60
2017-12-11T05:05:09.944Z,0.50
2017-12-11T05:06:15.340Z,0.70
2017-12-11T05:07:21.047Z,0.80
2017-12-11T05:08:26.724Z,0.50
2017-12-11T05:09:32.593Z,0.55
2017-12-11T05:10:38.608Z,0.57
2017-12-11T05:11:44.322Z,0.50
2017-12-11T05:12:50.060Z,0.60
2017-12-11T05:13:55.837Z,0.50
2017-12-11T05:15:01.632Z,0.77
2017-12-11T05:16:07.402Z,0.80
2017-12-11T05:17:13.194Z,0.50
2017-12-11T05:18:18.908Z,0.55
2017-12-11T05:19:24.597Z,0.50
2017-12-11T05:20:30.388Z,0.70
2017-12-11T05:21:35.431Z,0.70
2017-12-11T05:22:41.139Z,0.70
2017-12-11T05:23:46.834Z,0.65
2017-12-11T05:24:52.553Z,0.52
2017-12-11T05:25:58.279Z,0.50
2017-12-11T05:27:03.999Z,0.70
2017-12-11T05:28:09.769Z,0.70
2017-12-11T05:29:15.508Z,0.52
2017-12-11T05:30:21.222Z,0.70
2017-12-11T05:31:27.075Z,0.90
2017-12-11T05:32:32.943Z,0.55
2017-12-11T05:33:38.639Z,0.60
2017-12-11T05:34:45.089Z,0.88
2017-12-11T05:35:51.078Z,0.57
2017-12-11T05:36:56.183Z,0.60
2017-12-11T05:38:02.009Z,0.60
2017-12-11T05:39:08.698Z,0.80
2017-12-11T05:40:14.426Z,0.70
2017-12-11T05:41:19.799Z,0.60
2017-12-11T05:42:25.531Z,0.80
2017-12-11T05:43:31.239Z,1.58
2017-12-11T05:44:36.948Z,0.60
2017-12-11T05:45:43.645Z,0.55
2017-12-11T05:46:49.360Z,0.70
2017-12-11T05:47:55.844Z,0.60
2017-12-11T05:49:01.616Z,0.82
2017-12-11T05:50:07.333Z,0.90
2017-12-11T05:51:13.046Z,0.70
2017-12-11T05:52:19.513Z,0.52
2017-12-11T05:53:26.023Z,0.80
2017-12-11T05:54:31.729Z,0.60
2017-12-11T05:55:37.558Z,0.60
2017-12-11T05:56:44.071Z,0.60
2017-12-11T05:57:50.014Z,1.00
2017-12-11T05:58:55.828Z,0.60
2017-12-11T06:00:01.705Z,1.08
2017-12-11T06:01:07.657Z,0.62
2017-12-11T06:02:13.888Z,1.05
2017-12-11T06:03:19.810Z,0.80
2017-12-11T06:04:25.542Z,0.65
2017-12-11T06:05:31.469Z,0.73
2017-12-11T06:06:37.963Z,0.80
2017-12-11T06:07:43.989Z,0.70
2017-12-11T06:08:49.766Z,0.70
2017-12-11T06:09:55.505Z,0.98
2017-12-11T06:11:01.265Z,0.80
2017-12-11T06:12:07.073Z,0.80
2017-12-11T06:13:12.777Z,2.05
2017-12-11T06:14:18.308Z,1.60
2017-12-11T06:15:24.049Z,1.00
2017-12-11T06:16:30.716Z,1.20
2017-12-11T06:17:36.898Z,1.25
2017-12-11T06:18:43.380Z,1.30
2017-12-11T06:19:49.223Z,1.12
2017-12-11T06:20:54.976Z,1.42
2017-12-11T06:22:00.861Z,1.50
2017-12-11T06:23:06.620Z,1.60
2017-12-11T06:24:12.863Z,1.70
2017-12-11T06:25:18.621Z,2.05
2017-12-11T06:26:25.117Z,1.17
2017-12-11T06:27:30.852Z,0.88
2017-12-11T06:28:37.353Z,1.00
2017-12-11T06:29:43.241Z,1.20
2017-12-11T06:30:49.065Z,1.30
2017-12-11T06:31:54.870Z,1.48
2017-12-11T06:33:01.489Z,1.10
2017-12-11T06:34:07.288Z,1.10
2017-12-11T06:35:13.277Z,1.27
2017-12-11T06:36:20.080Z,1.40
2017-12-11T06:37:27.425Z,1.37
2017-12-11T06:38:34.688Z,1.27
2017-12-11T06:39:41.942Z,1.87
2017-12-11T06:40:48.380Z,1.30
2017-12-11T06:41:54.286Z,2.20
2017-12-11T06:42:59.995Z,1.87
2017-12-11T06:44:06.298Z,2.40
2017-12-11T06:45:12.119Z,1.55
2017-12-11T06:46:18.779Z,1.52
2017-12-11T06:47:24.502Z,1.80
2017-12-11T06:48:30.313Z,2.25
2017-12-11T06:49:36.039Z,1.65
2017-12-11T06:50:41.773Z,3.40
2017-12-11T06:51:47.537Z,3.35
2017-12-11T06:52:54.065Z,2.33
2017-12-11T06:54:00.503Z,1.62
2017-12-11T06:55:06.323Z,1.83
2017-12-11T06:56:12.208Z,1.67
2017-12-11T06:57:18.000Z,1.25
2017-12-11T06:58:23.902Z,1.30
2017-12-11T06:59:29.687Z,1.20
2017-12-11T07:00:35.450Z,1.40
2017-12-11T07:01:41.144Z,1.60
2017-12-11T07:02:47.731Z,2.60
2017-12-11T07:03:53.528Z,1.62
2017-12-11T07:05:00.082Z,1.92
2017-12-11T07:06:05.790Z,3.97
2017-12-11T07:07:11.492Z,3.30
2017-12-11T07:08:17.253Z,3.35
2017-12-11T07:09:23.765Z,3.80
2017-12-11T07:10:29.493Z,3.78
2017-12-11T07:11:35.189Z,3.97
2017-12-11T07:12:41.655Z,3.58
2017-12-11T07:13:48.141Z,6.22
2017-12-11T07:14:53.926Z,5.20
2017-12-11T07:15:59.666Z,3.30
2017-12-11T07:17:05.372Z,3.00
2017-12-11T07:18:11.178Z,2.58
2017-12-11T07:19:17.640Z,2.08
2017-12-11T07:20:24.128Z,2.80
2017-12-11T07:21:29.861Z,2.17
2017-12-11T07:22:35.620Z,1.80
2017-12-11T07:23:41.359Z,1.77
2017-12-11T07:24:47.892Z,2.05
2017-12-11T07:25:54.355Z,1.48
2017-12-11T07:27:00.088Z,2.00
2017-12-11T07:28:06.604Z,6.35
2017-12-11T07:29:12.320Z,3.50
2017-12-11T07:30:18.023Z,2.70
2017-12-11T07:31:24.499Z,3.30
2017-12-11T07:32:30.310Z,2.80
2017-12-11T07:33:36.023Z,3.35
2017-12-11T07:34:41.755Z,3.20
2017-12-11T07:35:47.477Z,2.47
2017-12-11T07:36:53.195Z,2.47
2017-12-11T07:37:59.050Z,2.90
2017-12-11T07:39:04.247Z,2.28
2017-12-11T07:40:09.968Z,2.78
2017-12-11T07:41:15.693Z,2.17
2017-12-11T07:42:22.163Z,2.30
2017-12-11T07:43:27.888Z,1.75
2017-12-11T07:44:34.354Z,1.62
2017-12-11T07:45:40.070Z,2.10
2017-12-11T07:46:46.593Z,2.28
2017-12-11T07:47:52.284Z,2.10
2017-12-11T07:48:58.799Z,2.55
2017-12-11T07:50:04.510Z,3.12
2017-12-11T07:51:10.206Z,2.12
2017-12-11T07:52:15.925Z,2.55
2017-12-11T07:53:21.836Z,2.15
2017-12-11T07:54:27.613Z,1.83
2017-12-11T07:55:33.325Z,2.10
2017-12-11T07:56:39.050Z,3.15
2017-12-11T07:57:44.739Z,1.60
2017-12-11T07:58:50.492Z,1.62
2017-12-11T07:59:56.236Z,2.12
2017-12-11T08:01:01.945Z,1.35
2017-12-11T08:02:07.664Z,1.55
2017-12-11T08:03:13.359Z,1.50
2017-12-11T08:04:19.071Z,1.67
2017-12-11T08:05:24.802Z,1.92
2017-12-11T08:06:30.569Z,2.15
2017-12-11T08:07:36.297Z,2.12
2017-12-11T08:08:42.025Z,3.08
2017-12-11T08:09:47.747Z,2.72
2017-12-11T08:10:53.466Z,1.85
2017-12-11T08:11:59.185Z,2.90
2017-12-11T08:13:04.872Z,2.90
2017-12-11T08:14:10.597Z,2.80
2017-12-11T08:15:16.380Z,2.60
2017-12-11T08:16:22.099Z,2.45
2017-12-11T08:17:27.875Z,2.55
2017-12-11T08:18:33.581Z,2.00
2017-12-11T08:19:39.272Z,1.67
2017-12-11T08:20:44.979Z,2.00
2017-12-11T08:21:50.718Z,2.65
2017-12-11T08:22:56.444Z,1.95
2017-12-11T08:24:02.179Z,2.33
2017-12-11T08:25:07.888Z,2.72
2017-12-11T08:26:14.391Z,1.98
2017-12-11T08:27:19.805Z,3.03
2017-12-11T08:28:25.553Z,2.85
2017-12-11T08:29:31.287Z,2.92
2017-12-11T08:30:37.079Z,3.15
2017-12-11T08:31:42.884Z,2.45
2017-12-11T08:32:48.703Z,2.75
2017-12-11T08:33:54.486Z,2.78
2017-12-11T08:35:00.493Z,2.72
2017-12-11T08:36:07.178Z,3.65
2017-12-11T08:37:12.942Z,3.42
2017-12-11T08:38:18.906Z,3.70
2017-12-11T08:39:24.611Z,3.53
2017-12-11T08:40:30.455Z,3.50
2017-12-11T08:41:36.212Z,3.80
2017-12-11T08:42:42.012Z,2.92
2017-12-11T08:43:48.510Z,3.47
2017-12-11T08:44:54.209Z,4.60
2017-12-11T08:45:59.718Z,5.25
2017-12-11T08:47:05.419Z,6.35
2017-12-11T08:48:11.133Z,5.65
2017-12-11T08:49:16.956Z,5.00
2017-12-11T08:50:23.540Z,6.22
2017-12-11T08:51:29.282Z,5.40
2017-12-11T08:52:34.974Z,5.97
2017-12-11T08:53:41.228Z,6.20
2017-12-11T08:54:46.752Z,6.50
2017-12-11T08:55:52.454Z,6.15
2017-12-11T08:56:58.145Z,6.60
2017-12-11T08:58:03.852Z,5.35
2017-12-11T08:59:09.729Z,5.85
2017-12-11T09:00:15.579Z,5.43
2017-12-11T09:01:21.285Z,5.10
2017-12-11T09:02:26.967Z,5.72
2017-12-11T09:03:33.585Z,5.45
2017-12-11T09:04:39.353Z,5.65
2017-12-11T09:05:45.150Z,5.82
2017-12-11T09:06:50.830Z,5.10
2017-12-11T09:07:56.578Z,5.40
2017-12-11T09:09:02.274Z,6.20
2017-12-11T09:10:07.960Z,6.57
2017-12-11T09:11:13.783Z,7.45
2017-12-11T09:12:19.615Z,6.78
2017-12-11T09:13:25.480Z,7.10
2017-12-11T09:14:31.269Z,6.75
2017-12-11T09:15:37.052Z,6.28
2017-12-11T09:16:42.867Z,6.07
2017-12-11T09:17:48.769Z,7.30
2017-12-11T09:18:54.576Z,6.62
2017-12-11T09:20:00.443Z,7.05
2017-12-11T09:21:06.171Z,8.02
2017-12-11T09:22:12.245Z,7.57
2017-12-11T09:23:17.936Z,8.23
2017-12-11T09:24:23.633Z,8.52
2017-12-11T09:25:29.356Z,8.43
2017-12-11T09:26:35.112Z,8.57
2017-12-11T09:27:40.833Z,7.65
2017-12-11T09:28:46.548Z,8.57
2017-12-11T09:29:52.313Z,9.50
2017-12-11T09:30:58.103Z,8.82
2017-12-11T09:32:04.051Z,9.25
2017-12-11T09:33:09.789Z,9.32
2017-12-11T09:34:15.501Z,9.20
2017-12-11T09:35:21.231Z,10.30
2017-12-11T09:36:26.953Z,9.50
2017-12-11T09:37:32.667Z,8.73
2017-12-11T09:38:38.455Z,8.32
2017-12-11T09:39:44.138Z,9.55
2017-12-11T09:40:49.567Z,9.80
2017-12-11T09:41:55.273Z,8.63
2017-12-11T09:43:00.657Z,9.00
2017-12-11T09:44:06.404Z,10.18
2017-12-11T09:45:12.104Z,9.45
2017-12-11T09:46:18.589Z,10.40
2017-12-11T09:47:24.285Z,9.48
2017-12-11T09:48:30.016Z,11.00
2017-12-11T09:49:35.986Z,8.85
2017-12-11T09:50:41.817Z,10.65
2017-12-11T09:51:47.532Z,10.25
2017-12-11T09:52:54.077Z,9.25
2017-12-11T09:53:59.821Z,9.30
2017-12-11T09:55:05.562Z,9.00
2017-12-11T09:56:11.273Z,10.07
2017-12-11T09:57:17.033Z,9.32
2017-12-11T09:58:22.912Z,10.10
2017-12-11T09:59:28.839Z,8.95
2017-12-11T10:00:34.552Z,8.30
2017-12-11T10:01:40.260Z,10.27
2017-12-11T10:02:45.625Z,9.20
2017-12-11T10:03:51.355Z,9.80
2017-12-11T10:04:57.852Z,10.45
2017-12-11T10:06:05.303Z,9.27
2017-12-11T10:07:11.194Z,9.43
2017-12-11T10:08:16.920Z,8.50
2017-12-11T10:09:23.167Z,9.30
2017-12-11T10:10:28.886Z,9.07
2017-12-11T10:11:34.630Z,9.45
2017-12-11T10:12:40.408Z,9.70
2017-12-11T10:13:46.110Z,9.02
2017-12-11T10:14:51.879Z,8.10
2017-12-11T10:15:57.587Z,8.95
2017-12-11T10:17:04.095Z,8.98
2017-12-11T10:18:09.798Z,9.82
2017-12-11T10:19:14.853Z,8.50
2017-12-11T10:20:20.611Z,8.70
2017-12-11T10:21:26.328Z,8.48
2017-12-11T10:22:32.069Z,9.65
2017-12-11T10:23:37.863Z,9.65
2017-12-11T10:24:43.545Z,7.45
2017-12-11T10:25:49.248Z,9.52
2017-12-11T10:26:55.042Z,8.98
2017-12-11T10:28:00.804Z,9.30
2017-12-11T10:29:06.568Z,9.60
2017-12-11T10:30:12.615Z,9.68
2017-12-11T10:31:18.388Z,10.73
2017-12-11T10:32:24.205Z,10.55
2017-12-11T10:33:29.965Z,10.18
2017-12-11T10:34:35.694Z,9.45
2017-12-11T10:35:41.483Z,10.40
2017-12-11T10:36:47.767Z,10.15
2017-12-11T10:37:53.493Z,10.05
2017-12-11T10:38:59.253Z,9.38
2017-12-11T10:40:05.034Z,10.00
2017-12-11T10:41:11.501Z,11.00
2017-12-11T10:42:18.029Z,8.63
2017-12-11T10:43:24.511Z,10.88
2017-12-11T10:44:31.195Z,10.52
2017-12-11T10:45:37.783Z,9.60
2017-12-11T10:46:43.612Z,10.70
2017-12-11T10:47:49.320Z,10.35
2017-12-11T10:48:55.828Z,10.07
2017-12-11T10:50:01.599Z,10.18
2017-12-11T10:51:07.313Z,10.45
2017-12-11T10:52:13.026Z,10.70
2017-12-11T10:53:18.760Z,11.38
2017-12-11T10:54:24.458Z,10.10
2017-12-11T10:55:30.269Z,10.07
2017-12-11T10:56:36.032Z,10.32
2017-12-11T10:57:41.770Z,11.38
2017-12-11T10:58:47.546Z,10.60
2017-12-11T10:59:54.162Z,10.55
2017-12-11T11:00:59.947Z,11.73
2017-12-11T11:02:06.422Z,10.98
2017-12-11T11:03:12.196Z,11.30
2017-12-11T11:04:17.942Z,10.85
2017-12-11T11:05:23.702Z,10.10
2017-12-11T11:06:30.276Z,11.35
2017-12-11T11:07:36.802Z,11.80
2017-12-11T11:08:42.499Z,10.30
2017-12-11T11:09:48.212Z,10.93
2017-12-11T11:10:54.692Z,11.23
2017-12-11T11:12:00.501Z,10.48
2017-12-11T11:13:06.206Z,9.80
2017-12-11T11:14:11.938Z,11.93
2017-12-11T11:15:17.651Z,9.20
2017-12-11T11:16:23.361Z,11.15
2017-12-11T11:17:29.119Z,10.52
2017-12-11T11:18:36.061Z,12.50
2017-12-11T11:19:42.900Z,11.50
2017-12-11T11:20:48.699Z,10.98
2017-12-11T11:21:54.606Z,10.68
2017-12-11T11:23:00.471Z,11.90
2017-12-11T11:24:06.104Z,11.52
2017-12-11T11:25:12.622Z,11.07
2017-12-11T11:26:18.424Z,12.07
2017-12-11T11:27:24.939Z,12.45
2017-12-11T11:28:30.702Z,15.85
2017-12-11T11:29:37.225Z,13.98
2017-12-11T11:30:43.144Z,12.35
2017-12-11T11:31:48.882Z,11.45
2017-12-11T11:32:54.653Z,11.35
2017-12-11T11:34:00.409Z,11.50
2017-12-11T11:35:05.884Z,10.45
2017-12-11T11:36:12.006Z,11.45
2017-12-11T11:37:17.795Z,12.05
2017-12-11T11:38:24.288Z,11.55
2017-12-11T11:39:30.039Z,11.35
2017-12-11T11:40:35.765Z,13.32
2017-12-11T11:41:41.503Z,12.57
2017-12-11T11:42:47.228Z,11.68
2017-12-11T11:43:53.627Z,12.50
2017-12-11T11:44:59.363Z,9.00
2017-12-11T11:46:05.351Z,12.02
2017-12-11T11:47:11.099Z,10.85
2017-12-11T11:48:16.915Z,11.90
2017-12-11T11:49:22.681Z,11.75
2017-12-11T11:50:29.270Z,11.70
2017-12-11T11:51:35.795Z,11.30
2017-12-11T11:52:41.569Z,10.90
2017-12-11T11:53:47.357Z,12.23
2017-12-11T11:54:53.087Z,10.60
2017-12-11T11:55:58.654Z,11.50
2017-12-11T11:57:04.104Z,11.10
2017-12-11T11:58:10.014Z,11.30
2017-12-11T11:59:15.490Z,12.60
2017-12-11T12:00:20.555Z,11.27
2017-12-11T12:01:25.781Z,11.65
2017-12-11T12:02:31.557Z,11.23
2017-12-11T12:03:37.288Z,11.75
2017-12-11T12:04:43.138Z,11.95
2017-12-11T12:05:48.913Z,12.07
2017-12-11T12:06:54.719Z,10.70
2017-12-11T12:08:00.636Z,13.10
2017-12-11T12:09:05.815Z,11.93
2017-12-11T12:10:11.665Z,12.18
2017-12-11T12:11:17.486Z,11.50
2017-12-11T12:12:22.956Z,12.52
2017-12-11T12:13:29.478Z,11.40
2017-12-11T12:14:35.365Z,12.25
2017-12-11T12:15:41.274Z,12.35
2017-12-11T12:16:48.028Z,11.05
2017-12-11T12:17:54.108Z,12.02
2017-12-11T12:19:00.220Z,11.52
2017-12-11T12:20:06.020Z,10.98
2017-12-11T12:21:12.541Z,10.18
2017-12-11T12:22:18.343Z,11.48
2017-12-11T12:23:24.285Z,9.95
2017-12-11T12:24:29.793Z,11.05
2017-12-11T12:25:35.525Z,11.48
2017-12-11T12:26:41.354Z,11.50
2017-12-11T12:27:47.152Z,13.00
2017-12-11T12:28:52.940Z,11.88
2017-12-11T12:29:58.553Z,12.50
2017-12-11T12:31:04.099Z,12.50
2017-12-11T12:32:09.949Z,11.95
2017-12-11T12:33:15.385Z,12.32
2017-12-11T12:34:21.245Z,11.02
2017-12-11T12:35:27.792Z,12.55
2017-12-11T12:36:34.393Z,11.95
2017-12-11T12:37:40.132Z,11.50
2017-12-11T12:38:46.558Z,12.43
2017-12-11T12:39:53.068Z,11.70
2017-12-11T12:40:58.448Z,12.35
2017-12-11T12:42:04.788Z,12.10
2017-12-11T12:43:10.673Z,11.70
2017-12-11T12:44:16.428Z,12.48
2017-12-11T12:45:22.260Z,10.63
2017-12-11T12:46:27.864Z,11.32
2017-12-11T12:47:33.817Z,11.93
2017-12-11T12:48:40.312Z,11.25
2017-12-11T12:49:46.049Z,11.25
2017-12-11T12:50:51.810Z,13.07
2017-12-11T12:51:57.626Z,13.10
2017-12-11T12:53:03.372Z,11.95
2017-12-11T12:54:09.099Z,11.15
2017-12-11T12:55:14.813Z,11.93
2017-12-11T12:56:21.366Z,10.32
2017-12-11T12:57:27.883Z,12.48
2017-12-11T12:58:33.740Z,10.25
2017-12-11T12:59:39.445Z,11.82
2017-12-11T13:00:45.160Z,10.60
2017-12-11T13:01:50.915Z,11.10
2017-12-11T13:02:57.403Z,10.20
2017-12-11T13:04:03.112Z,10.05
2017-12-11T13:05:09.672Z,9.60
2017-12-11T13:06:16.215Z,10.07
2017-12-11T13:07:22.032Z,9.77
2017-12-11T13:08:27.755Z,10.52
2017-12-11T13:09:33.477Z,9.43
2017-12-11T13:10:39.180Z,9.45
2017-12-11T13:11:44.897Z,10.02
2017-12-11T13:12:50.654Z,10.35
2017-12-11T13:13:57.126Z,8.68
2017-12-11T13:15:02.840Z,8.57
2017-12-11T13:16:08.542Z,9.45
2017-12-11T13:17:14.240Z,7.95
2017-12-11T13:18:20.784Z,8.85
2017-12-11T13:19:26.484Z,8.85
2017-12-11T13:20:32.263Z,8.55
2017-12-11T13:21:37.991Z,9.15
2017-12-11T13:22:43.684Z,8.85
2017-12-11T13:23:50.192Z,8.38
2017-12-11T13:24:55.904Z,7.70
2017-12-11T13:26:01.618Z,8.55
2017-12-11T13:27:08.101Z,8.95
2017-12-11T13:28:13.866Z,8.48
2017-12-11T13:29:21.873Z,8.38
2017-12-11T13:30:27.844Z,8.75
2017-12-11T13:31:33.550Z,7.30
2017-12-11T13:32:39.113Z,8.32
2017-12-11T13:33:44.645Z,8.40
2017-12-11T13:34:50.427Z,7.97
2017-12-11T13:35:56.935Z,8.55
2017-12-11T13:37:02.646Z,8.98
2017-12-11T13:38:08.419Z,8.60
2017-12-11T13:39:14.866Z,9.25
2017-12-11T13:40:20.689Z,8.10
2017-12-11T13:41:26.481Z,8.25
2017-12-11T13:42:32.220Z,7.57
2017-12-11T13:43:38.729Z,8.15
2017-12-11T13:44:44.436Z,7.60
2017-12-11T13:45:50.196Z,7.55
2017-12-11T13:46:56.712Z,8.55
2017-12-11T13:48:02.415Z,7.80
2017-12-11T13:49:07.933Z,7.37
2017-12-11T13:50:13.724Z,7.62
2017-12-11T13:51:19.215Z,8.77
2017-12-11T13:52:24.933Z,7.53
2017-12-11T13:53:31.542Z,8.68
2017-12-11T13:54:37.440Z,7.95
2017-12-11T13:55:43.193Z,7.80
2017-12-11T13:56:49.677Z,8.73
2017-12-11T13:57:55.429Z,8.63
2017-12-11T13:59:01.194Z,9.38
2017-12-11T14:00:06.917Z,8.30
2017-12-11T14:01:12.692Z,9.35
2017-12-11T14:02:19.173Z,8.57
2017-12-11T14:03:25.120Z,9.43
2017-12-11T14:04:31.175Z,10.07
2017-12-11T14:05:37.798Z,10.50
2017-12-11T14:06:44.091Z,10.52
2017-12-11T14:07:50.951Z,9.77
2017-12-11T14:08:57.825Z,11.05
2017-12-11T14:10:05.677Z,11.30
2017-12-11T14:11:13.314Z,10.77
2017-12-11T14:12:19.991Z,11.05
2017-12-11T14:13:25.962Z,12.35
2017-12-11T14:14:31.885Z,11.48
2017-12-11T14:15:38.578Z,10.25
2017-12-11T14:16:45.694Z,10.73
2017-12-11T14:17:51.435Z,11.50
2017-12-11T14:18:57.312Z,10.90
2017-12-11T14:20:03.092Z,11.07
2017-12-11T14:21:10.284Z,11.80
2017-12-11T14:22:16.110Z,12.73
2017-12-11T14:23:22.809Z,12.85
2017-12-11T14:24:29.770Z,13.02
2017-12-11T14:25:37.260Z,12.02
2017-12-11T14:26:43.579Z,10.65
2017-12-11T14:27:50.402Z,10.85
2017-12-11T14:28:56.325Z,9.88
2017-12-11T14:30:04.223Z,8.82